sensor_id;sensor_type;location;lat;lon;timestamp;P1;durP1;ratioP1;P2;durP2;ratioP2
24273;SDS011;12392;42.678;23.380;2022-12-18T00:01:24;8.13;;;4.28;;
24273;SDS011;12392;42.678;23.380;2022-12-18T00:03:52;7.07;;;3.90;;
24273;SDS011;12392;42.678;23.380;2022-12-18T00:06:19;6.85;;;4.57;;
24273;SDS011;12392;42.678;23.380;2022-12-18T00:08:45;7.90;;;4.07;;
24273;SDS011;12392;42.678;23.380;2022-12-18T00:11:12;7.68;;;4.65;;
24273;SDS011;12392;42.678;23.380;2022-12-18T00:13:45;6.05;;;3.88;;
24273;SDS011;12392;42.678;23.380;2022-12-18T00:16:12;6.43;;;4.28;;
24273;SDS011;12392;42.678;23.380;2022-12-18T00:18:40;6.72;;;3.95;;
24273;SDS011;12392;42.678;23.380;2022-12-18T00:21:07;10.40;;;5.20;;
24273;SDS011;12392;42.678;23.380;2022-12-18T00:23:34;7.57;;;4.30;;
24273;SDS011;12392;42.678;23.380;2022-12-18T00:26:01;8.57;;;4.72;;
24273;SDS011;12392;42.678;23.380;2022-12-18T00:28:28;6.38;;;3.95;;
24273;SDS011;12392;42.678;23.380;2022-12-18T00:31:04;11.55;;;4.75;;
24273;SDS011;12392;42.678;23.380;2022-12-18T00:33:34;8.77;;;4.72;;
24273;SDS011;12392;42.678;23.380;2022-12-18T00:36:03;6.78;;;4.57;;
24273;SDS011;12392;42.678;23.380;2022-12-18T00:38:30;10.25;;;4.63;;
24273;SDS011;12392;42.678;23.380;2022-12-18T00:40:56;8.98;;;4.50;;
24273;SDS011;12392;42.678;23.380;2022-12-18T00:43:21;10.05;;;4.43;;
24273;SDS011;12392;42.678;23.380;2022-12-18T00:45:47;8.55;;;4.57;;
24273;SDS011;12392;42.678;23.380;2022-12-18T00:48:13;7.57;;;4.57;;
24273;SDS011;12392;42.678;23.380;2022-12-18T00:50:38;8.40;;;4.28;;
24273;SDS011;12392;42.678;23.380;2022-12-18T00:53:04;8.60;;;4.35;;
24273;SDS011;12392;42.678;23.380;2022-12-18T00:55:30;7.88;;;5.18;;
24273;SDS011;12392;42.678;23.380;2022-12-18T00:57:56;7.93;;;4.38;;
24273;SDS011;12392;42.678;23.380;2022-12-18T01:00:21;8.82;;;4.38;;
24273;SDS011;12392;42.678;23.380;2022-12-18T01:02:47;7.93;;;4.60;;
24273;SDS011;12392;42.678;23.380;2022-12-18T01:05:13;9.30;;;4.70;;
24273;SDS011;12392;42.678;23.380;2022-12-18T01:07:39;8.27;;;5.13;;
24273;SDS011;12392;42.678;23.380;2022-12-18T01:10:05;6.68;;;4.47;;
24273;SDS011;12392;42.678;23.380;2022-12-18T01:12:32;7.90;;;4.50;;
24273;SDS011;12392;42.678;23.380;2022-12-18T01:14:58;7.47;;;4.20;;
24273;SDS011;12392;42.678;23.380;2022-12-18T01:17:23;8.35;;;4.72;;
24273;SDS011;12392;42.678;23.380;2022-12-18T01:19:49;9.93;;;4.80;;
24273;SDS011;12392;42.678;23.380;2022-12-18T01:22:15;9.20;;;4.35;;
24273;SDS011;12392;42.678;23.380;2022-12-18T01:24:40;7.93;;;4.28;;
24273;SDS011;12392;42.678;23.380;2022-12-18T01:27:06;8.48;;;4.82;;
24273;SDS011;12392;42.678;23.380;2022-12-18T01:29:32;9.63;;;5.18;;
24273;SDS011;12392;42.678;23.380;2022-12-18T01:31:57;7.97;;;4.53;;
24273;SDS011;12392;42.678;23.380;2022-12-18T01:34:23;8.73;;;4.60;;
24273;SDS011;12392;42.678;23.380;2022-12-18T01:36:49;9.55;;;4.57;;
24273;SDS011;12392;42.678;23.380;2022-12-18T01:39:17;7.20;;;4.05;;
24273;SDS011;12392;42.678;23.380;2022-12-18T01:41:43;10.15;;;5.47;;
24273;SDS011;12392;42.678;23.380;2022-12-18T01:47:26;11.65;;;5.30;;
24273;SDS011;12392;42.678;23.380;2022-12-18T01:49:56;9.02;;;4.75;;
24273;SDS011;12392;42.678;23.380;2022-12-18T01:52:23;8.82;;;4.63;;
24273;SDS011;12392;42.678;23.380;2022-12-18T01:54:51;8.00;;;5.32;;
24273;SDS011;12392;42.678;23.380;2022-12-18T01:57:17;9.80;;;4.45;;
24273;SDS011;12392;42.678;23.380;2022-12-18T01:59:43;10.27;;;5.28;;
24273;SDS011;12392;42.678;23.380;2022-12-18T02:02:11;7.45;;;4.65;;
24273;SDS011;12392;42.678;23.380;2022-12-18T02:04:37;10.10;;;4.72;;
24273;SDS011;12392;42.678;23.380;2022-12-18T02:09:45;9.02;;;5.20;;
24273;SDS011;12392;42.678;23.380;2022-12-18T02:12:16;11.32;;;5.65;;
24273;SDS011;12392;42.678;23.380;2022-12-18T02:17:18;9.68;;;4.97;;
24273;SDS011;12392;42.678;23.380;2022-12-18T02:27:53;6.63;;;3.83;;
24273;SDS011;12392;42.678;23.380;2022-12-18T02:30:19;7.38;;;4.53;;
24273;SDS011;12392;42.678;23.380;2022-12-18T02:32:47;7.88;;;4.30;;
24273;SDS011;12392;42.678;23.380;2022-12-18T02:35:20;8.20;;;4.90;;
24273;SDS011;12392;42.678;23.380;2022-12-18T02:37:49;7.00;;;4.63;;
24273;SDS011;12392;42.678;23.380;2022-12-18T02:40:15;8.32;;;4.70;;
24273;SDS011;12392;42.678;23.380;2022-12-18T02:42:42;7.13;;;3.95;;
24273;SDS011;12392;42.678;23.380;2022-12-18T02:45:08;7.28;;;3.90;;
24273;SDS011;12392;42.678;23.380;2022-12-18T02:47:36;9.35;;;4.88;;
24273;SDS011;12392;42.678;23.380;2022-12-18T02:52:45;6.78;;;3.92;;
24273;SDS011;12392;42.678;23.380;2022-12-18T03:03:39;9.90;;;5.22;;
24273;SDS011;12392;42.678;23.380;2022-12-18T03:06:10;7.38;;;4.65;;
24273;SDS011;12392;42.678;23.380;2022-12-18T03:08:42;7.43;;;4.43;;
24273;SDS011;12392;42.678;23.380;2022-12-18T03:11:10;8.82;;;4.30;;
24273;SDS011;12392;42.678;23.380;2022-12-18T03:13:39;8.65;;;3.97;;
24273;SDS011;12392;42.678;23.380;2022-12-18T03:16:11;8.73;;;4.38;;
24273;SDS011;12392;42.678;23.380;2022-12-18T03:18:49;11.10;;;4.20;;
24273;SDS011;12392;42.678;23.380;2022-12-18T03:21:21;9.15;;;4.75;;
24273;SDS011;12392;42.678;23.380;2022-12-18T03:23:51;6.95;;;4.55;;
24273;SDS011;12392;42.678;23.380;2022-12-18T03:26:19;7.72;;;4.68;;
24273;SDS011;12392;42.678;23.380;2022-12-18T03:28:55;6.78;;;4.25;;
24273;SDS011;12392;42.678;23.380;2022-12-18T03:31:25;8.13;;;4.88;;
24273;SDS011;12392;42.678;23.380;2022-12-18T03:33:54;8.65;;;4.63;;
24273;SDS011;12392;42.678;23.380;2022-12-18T03:36:21;8.68;;;4.18;;
24273;SDS011;12392;42.678;23.380;2022-12-18T03:38:47;7.30;;;4.32;;
24273;SDS011;12392;42.678;23.380;2022-12-18T03:46:16;7.88;;;4.45;;
24273;SDS011;12392;42.678;23.380;2022-12-18T03:49:13;7.28;;;4.10;;
24273;SDS011;12392;42.678;23.380;2022-12-18T03:52:01;9.02;;;4.50;;
24273;SDS011;12392;42.678;23.380;2022-12-18T03:54:32;9.85;;;5.32;;
24273;SDS011;12392;42.678;23.380;2022-12-18T03:57:18;10.65;;;4.95;;
24273;SDS011;12392;42.678;23.380;2022-12-18T03:59:45;10.48;;;5.22;;
24273;SDS011;12392;42.678;23.380;2022-12-18T04:02:13;6.85;;;4.30;;
24273;SDS011;12392;42.678;23.380;2022-12-18T04:04:40;8.57;;;4.60;;
24273;SDS011;12392;42.678;23.380;2022-12-18T04:07:07;11.57;;;4.63;;
24273;SDS011;12392;42.678;23.380;2022-12-18T04:09:33;8.55;;;4.60;;
24273;SDS011;12392;42.678;23.380;2022-12-18T04:11:59;7.63;;;4.65;;
24273;SDS011;12392;42.678;23.380;2022-12-18T04:14:25;8.10;;;4.57;;
24273;SDS011;12392;42.678;23.380;2022-12-18T04:16:50;11.40;;;4.63;;
24273;SDS011;12392;42.678;23.380;2022-12-18T04:19:16;8.00;;;4.45;;
24273;SDS011;12392;42.678;23.380;2022-12-18T04:21:42;9.20;;;4.70;;
24273;SDS011;12392;42.678;23.380;2022-12-18T04:24:07;8.02;;;4.80;;
24273;SDS011;12392;42.678;23.380;2022-12-18T04:26:33;8.82;;;5.03;;
24273;SDS011;12392;42.678;23.380;2022-12-18T04:28:59;13.88;;;5.95;;
24273;SDS011;12392;42.678;23.380;2022-12-18T04:31:25;11.20;;;5.57;;
24273;SDS011;12392;42.678;23.380;2022-12-18T04:33:51;11.40;;;5.55;;
24273;SDS011;12392;42.678;23.380;2022-12-18T04:36:17;12.43;;;5.25;;
24273;SDS011;12392;42.678;23.380;2022-12-18T04:38:42;10.80;;;4.95;;
24273;SDS011;12392;42.678;23.380;2022-12-18T04:41:08;7.65;;;4.30;;
24273;SDS011;12392;42.678;23.380;2022-12-18T04:43:34;12.93;;;6.20;;
24273;SDS011;12392;42.678;23.380;2022-12-18T04:46:03;12.40;;;6.25;;
24273;SDS011;12392;42.678;23.380;2022-12-18T04:48:29;12.50;;;6.25;;
24273;SDS011;12392;42.678;23.380;2022-12-18T04:50:55;12.63;;;6.53;;
24273;SDS011;12392;42.678;23.380;2022-12-18T04:53:20;8.68;;;5.32;;
24273;SDS011;12392;42.678;23.380;2022-12-18T04:55:46;9.52;;;5.85;;
24273;SDS011;12392;42.678;23.380;2022-12-18T04:58:12;11.65;;;6.05;;
24273;SDS011;12392;42.678;23.380;2022-12-18T05:00:37;12.27;;;5.70;;
24273;SDS011;12392;42.678;23.380;2022-12-18T05:03:03;13.73;;;6.03;;
24273;SDS011;12392;42.678;23.380;2022-12-18T05:05:29;9.48;;;5.43;;
24273;SDS011;12392;42.678;23.380;2022-12-18T05:07:54;11.77;;;7.05;;
24273;SDS011;12392;42.678;23.380;2022-12-18T05:10:20;8.65;;;5.82;;
24273;SDS011;12392;42.678;23.380;2022-12-18T05:12:46;10.30;;;5.85;;
24273;SDS011;12392;42.678;23.380;2022-12-18T05:15:24;11.52;;;6.32;;
24273;SDS011;12392;42.678;23.380;2022-12-18T05:17:55;8.82;;;5.70;;
24273;SDS011;12392;42.678;23.380;2022-12-18T05:20:21;11.20;;;5.45;;
24273;SDS011;12392;42.678;23.380;2022-12-18T05:22:47;15.32;;;6.80;;
24273;SDS011;12392;42.678;23.380;2022-12-18T05:25:12;13.98;;;7.20;;
24273;SDS011;12392;42.678;23.380;2022-12-18T05:27:38;13.75;;;7.32;;
24273;SDS011;12392;42.678;23.380;2022-12-18T05:30:04;12.32;;;6.47;;
24273;SDS011;12392;42.678;23.380;2022-12-18T05:32:30;12.05;;;6.53;;
24273;SDS011;12392;42.678;23.380;2022-12-18T05:34:55;12.32;;;5.43;;
24273;SDS011;12392;42.678;23.380;2022-12-18T05:37:22;17.00;;;8.60;;
24273;SDS011;12392;42.678;23.380;2022-12-18T05:39:48;16.52;;;7.03;;
24273;SDS011;12392;42.678;23.380;2022-12-18T05:42:13;11.68;;;6.90;;
24273;SDS011;12392;42.678;23.380;2022-12-18T05:44:39;15.43;;;7.07;;
24273;SDS011;12392;42.678;23.380;2022-12-18T05:47:05;15.52;;;7.60;;
24273;SDS011;12392;42.678;23.380;2022-12-18T05:49:31;16.83;;;7.88;;
24273;SDS011;12392;42.678;23.380;2022-12-18T05:51:57;15.10;;;7.40;;
24273;SDS011;12392;42.678;23.380;2022-12-18T05:54:23;20.55;;;7.82;;
24273;SDS011;12392;42.678;23.380;2022-12-18T05:56:48;14.27;;;6.88;;
24273;SDS011;12392;42.678;23.380;2022-12-18T05:59:14;12.90;;;6.05;;
24273;SDS011;12392;42.678;23.380;2022-12-18T06:01:40;13.43;;;5.90;;
24273;SDS011;12392;42.678;23.380;2022-12-18T06:04:05;16.02;;;7.10;;
24273;SDS011;12392;42.678;23.380;2022-12-18T06:06:31;17.02;;;7.20;;
24273;SDS011;12392;42.678;23.380;2022-12-18T06:08:57;15.63;;;7.22;;
24273;SDS011;12392;42.678;23.380;2022-12-18T06:11:24;13.48;;;6.82;;
24273;SDS011;12392;42.678;23.380;2022-12-18T06:13:51;15.27;;;7.95;;
24273;SDS011;12392;42.678;23.380;2022-12-18T06:16:18;16.13;;;7.35;;
24273;SDS011;12392;42.678;23.380;2022-12-18T06:18:43;14.55;;;7.30;;
24273;SDS011;12392;42.678;23.380;2022-12-18T06:21:09;15.32;;;7.95;;
24273;SDS011;12392;42.678;23.380;2022-12-18T06:23:35;17.50;;;7.90;;
24273;SDS011;12392;42.678;23.380;2022-12-18T06:26:08;13.68;;;7.53;;
24273;SDS011;12392;42.678;23.380;2022-12-18T06:28:36;14.05;;;6.60;;
24273;SDS011;12392;42.678;23.380;2022-12-18T06:31:02;15.75;;;7.65;;
24273;SDS011;12392;42.678;23.380;2022-12-18T06:33:28;14.30;;;7.22;;
24273;SDS011;12392;42.678;23.380;2022-12-18T06:35:58;16.40;;;7.60;;
24273;SDS011;12392;42.678;23.380;2022-12-18T06:38:25;16.17;;;7.80;;
24273;SDS011;12392;42.678;23.380;2022-12-18T06:40:51;12.43;;;6.60;;
24273;SDS011;12392;42.678;23.380;2022-12-18T06:43:17;15.15;;;7.38;;
24273;SDS011;12392;42.678;23.380;2022-12-18T06:45:42;10.40;;;6.25;;
24273;SDS011;12392;42.678;23.380;2022-12-18T06:48:08;14.77;;;7.38;;
24273;SDS011;12392;42.678;23.380;2022-12-18T06:50:34;12.93;;;6.97;;
24273;SDS011;12392;42.678;23.380;2022-12-18T06:53:00;12.18;;;7.35;;
24273;SDS011;12392;42.678;23.380;2022-12-18T06:55:25;12.80;;;6.28;;
24273;SDS011;12392;42.678;23.380;2022-12-18T06:57:51;14.05;;;7.10;;
24273;SDS011;12392;42.678;23.380;2022-12-18T07:00:17;14.57;;;7.82;;
24273;SDS011;12392;42.678;23.380;2022-12-18T07:02:43;12.63;;;7.03;;
24273;SDS011;12392;42.678;23.380;2022-12-18T07:05:08;13.27;;;6.93;;
24273;SDS011;12392;42.678;23.380;2022-12-18T07:07:34;15.35;;;7.05;;
24273;SDS011;12392;42.678;23.380;2022-12-18T07:10:00;14.02;;;7.15;;
24273;SDS011;12392;42.678;23.380;2022-12-18T07:12:26;14.18;;;6.88;;
24273;SDS011;12392;42.678;23.380;2022-12-18T07:14:52;12.95;;;6.70;;
24273;SDS011;12392;42.678;23.380;2022-12-18T07:17:18;13.77;;;7.35;;
24273;SDS011;12392;42.678;23.380;2022-12-18T07:19:44;14.35;;;6.32;;
24273;SDS011;12392;42.678;23.380;2022-12-18T07:22:10;13.32;;;6.13;;
24273;SDS011;12392;42.678;23.380;2022-12-18T07:24:35;14.98;;;7.55;;
24273;SDS011;12392;42.678;23.380;2022-12-18T07:27:01;15.88;;;7.47;;
24273;SDS011;12392;42.678;23.380;2022-12-18T07:29:26;10.95;;;5.55;;
24273;SDS011;12392;42.678;23.380;2022-12-18T07:31:52;14.38;;;6.03;;
24273;SDS011;12392;42.678;23.380;2022-12-18T07:34:18;20.05;;;6.90;;
24273;SDS011;12392;42.678;23.380;2022-12-18T07:36:43;14.18;;;7.68;;
24273;SDS011;12392;42.678;23.380;2022-12-18T07:39:10;16.33;;;8.40;;
24273;SDS011;12392;42.678;23.380;2022-12-18T07:41:36;20.88;;;9.13;;
24273;SDS011;12392;42.678;23.380;2022-12-18T07:44:02;21.98;;;8.98;;
24273;SDS011;12392;42.678;23.380;2022-12-18T07:46:27;14.80;;;8.20;;
24273;SDS011;12392;42.678;23.380;2022-12-18T07:48:53;17.20;;;8.05;;
24273;SDS011;12392;42.678;23.380;2022-12-18T07:51:19;15.52;;;7.78;;
24273;SDS011;12392;42.678;23.380;2022-12-18T07:53:44;19.10;;;8.63;;
24273;SDS011;12392;42.678;23.380;2022-12-18T07:56:11;12.57;;;6.55;;
24273;SDS011;12392;42.678;23.380;2022-12-18T07:58:37;18.45;;;9.48;;
24273;SDS011;12392;42.678;23.380;2022-12-18T08:01:06;24.00;;;10.15;;
24273;SDS011;12392;42.678;23.380;2022-12-18T08:03:33;16.75;;;9.10;;
24273;SDS011;12392;42.678;23.380;2022-12-18T08:06:03;15.75;;;8.77;;
24273;SDS011;12392;42.678;23.380;2022-12-18T08:08:31;21.52;;;9.88;;
24273;SDS011;12392;42.678;23.380;2022-12-18T08:10:57;15.65;;;8.60;;
24273;SDS011;12392;42.678;23.380;2022-12-18T08:13:23;17.52;;;9.18;;
24273;SDS011;12392;42.678;23.380;2022-12-18T08:16:10;17.90;;;8.40;;
24273;SDS011;12392;42.678;23.380;2022-12-18T08:18:36;18.02;;;10.20;;
24273;SDS011;12392;42.678;23.380;2022-12-18T08:23:34;17.77;;;9.23;;
24273;SDS011;12392;42.678;23.380;2022-12-18T08:26:00;15.23;;;7.35;;
24273;SDS011;12392;42.678;23.380;2022-12-18T08:28:26;16.90;;;7.15;;
24273;SDS011;12392;42.678;23.380;2022-12-18T08:30:52;20.52;;;9.85;;
24273;SDS011;12392;42.678;23.380;2022-12-18T08:33:18;21.40;;;9.60;;
24273;SDS011;12392;42.678;23.380;2022-12-18T08:35:43;16.42;;;8.52;;
24273;SDS011;12392;42.678;23.380;2022-12-18T08:38:09;19.80;;;9.25;;
24273;SDS011;12392;42.678;23.380;2022-12-18T08:40:35;20.30;;;9.63;;
24273;SDS011;12392;42.678;23.380;2022-12-18T08:43:00;20.25;;;8.60;;
24273;SDS011;12392;42.678;23.380;2022-12-18T08:45:44;18.23;;;9.25;;
24273;SDS011;12392;42.678;23.380;2022-12-18T08:48:10;14.95;;;8.48;;
24273;SDS011;12392;42.678;23.380;2022-12-18T08:50:36;17.85;;;9.35;;
24273;SDS011;12392;42.678;23.380;2022-12-18T08:53:01;15.93;;;8.20;;
24273;SDS011;12392;42.678;23.380;2022-12-18T08:55:27;18.35;;;8.38;;
24273;SDS011;12392;42.678;23.380;2022-12-18T08:57:53;15.85;;;7.63;;
24273;SDS011;12392;42.678;23.380;2022-12-18T09:00:19;17.75;;;9.02;;
24273;SDS011;12392;42.678;23.380;2022-12-18T09:02:45;17.65;;;8.90;;
24273;SDS011;12392;42.678;23.380;2022-12-18T09:05:10;17.73;;;9.43;;
24273;SDS011;12392;42.678;23.380;2022-12-18T09:07:36;18.73;;;8.15;;
24273;SDS011;12392;42.678;23.380;2022-12-18T09:10:02;19.63;;;7.93;;
24273;SDS011;12392;42.678;23.380;2022-12-18T09:12:28;20.80;;;9.02;;
24273;SDS011;12392;42.678;23.380;2022-12-18T09:14:54;17.65;;;8.88;;
24273;SDS011;12392;42.678;23.380;2022-12-18T09:17:21;17.17;;;8.38;;
24273;SDS011;12392;42.678;23.380;2022-12-18T09:19:47;17.58;;;8.43;;
24273;SDS011;12392;42.678;23.380;2022-12-18T09:22:12;16.58;;;8.10;;
24273;SDS011;12392;42.678;23.380;2022-12-18T09:24:38;16.27;;;6.78;;
24273;SDS011;12392;42.678;23.380;2022-12-18T09:27:04;13.55;;;7.28;;
24273;SDS011;12392;42.678;23.380;2022-12-18T09:29:29;17.23;;;8.57;;
24273;SDS011;12392;42.678;23.380;2022-12-18T09:31:55;19.80;;;8.05;;
24273;SDS011;12392;42.678;23.380;2022-12-18T09:34:21;17.83;;;7.40;;
24273;SDS011;12392;42.678;23.380;2022-12-18T09:36:47;15.38;;;8.02;;
24273;SDS011;12392;42.678;23.380;2022-12-18T09:39:13;16.65;;;7.20;;
24273;SDS011;12392;42.678;23.380;2022-12-18T09:41:40;14.32;;;7.78;;
24273;SDS011;12392;42.678;23.380;2022-12-18T09:47:17;12.73;;;7.10;;
24273;SDS011;12392;42.678;23.380;2022-12-18T09:49:55;17.90;;;7.82;;
24273;SDS011;12392;42.678;23.380;2022-12-18T09:52:24;13.52;;;7.43;;
24273;SDS011;12392;42.678;23.380;2022-12-18T09:54:55;15.43;;;7.15;;
24273;SDS011;12392;42.678;23.380;2022-12-18T09:57:28;14.63;;;7.22;;
24273;SDS011;12392;42.678;23.380;2022-12-18T09:59:58;16.95;;;8.10;;
24273;SDS011;12392;42.678;23.380;2022-12-18T10:02:42;15.80;;;7.60;;
24273;SDS011;12392;42.678;23.380;2022-12-18T10:05:10;15.70;;;7.68;;
24273;SDS011;12392;42.678;23.380;2022-12-18T10:10:10;16.98;;;8.27;;
24273;SDS011;12392;42.678;23.380;2022-12-18T10:15:39;16.42;;;7.75;;
24273;SDS011;12392;42.678;23.380;2022-12-18T10:18:42;20.40;;;9.45;;
24273;SDS011;12392;42.678;23.380;2022-12-18T10:21:08;17.40;;;8.25;;
24273;SDS011;12392;42.678;23.380;2022-12-18T10:26:05;16.98;;;8.55;;
24273;SDS011;12392;42.678;23.380;2022-12-18T10:28:33;14.00;;;6.70;;
24273;SDS011;12392;42.678;23.380;2022-12-18T10:31:00;14.00;;;6.60;;
24273;SDS011;12392;42.678;23.380;2022-12-18T10:33:30;16.02;;;6.45;;
24273;SDS011;12392;42.678;23.380;2022-12-18T10:35:56;14.82;;;8.32;;
24273;SDS011;12392;42.678;23.380;2022-12-18T10:43:28;14.43;;;6.65;;
24273;SDS011;12392;42.678;23.380;2022-12-18T10:48:28;19.65;;;8.40;;
24273;SDS011;12392;42.678;23.380;2022-12-18T10:50:55;17.08;;;8.75;;
24273;SDS011;12392;42.678;23.380;2022-12-18T10:53:24;13.65;;;7.68;;
24273;SDS011;12392;42.678;23.380;2022-12-18T10:55:52;18.52;;;8.07;;
24273;SDS011;12392;42.678;23.380;2022-12-18T11:03:42;15.07;;;7.68;;
24273;SDS011;12392;42.678;23.380;2022-12-18T11:06:15;19.23;;;8.05;;
24273;SDS011;12392;42.678;23.380;2022-12-18T11:08:43;18.58;;;8.27;;
24273;SDS011;12392;42.678;23.380;2022-12-18T11:11:22;19.75;;;8.43;;
24273;SDS011;12392;42.678;23.380;2022-12-18T11:16:44;21.33;;;8.60;;
24273;SDS011;12392;42.678;23.380;2022-12-18T11:19:19;16.05;;;7.47;;
24273;SDS011;12392;42.678;23.380;2022-12-18T11:21:59;19.52;;;9.60;;
24273;SDS011;12392;42.678;23.380;2022-12-18T11:24:31;16.00;;;8.25;;
24273;SDS011;12392;42.678;23.380;2022-12-18T11:27:01;14.60;;;7.25;;
24273;SDS011;12392;42.678;23.380;2022-12-18T11:29:33;18.50;;;8.00;;
24273;SDS011;12392;42.678;23.380;2022-12-18T11:34:41;18.75;;;8.27;;
24273;SDS011;12392;42.678;23.380;2022-12-18T11:37:09;16.55;;;7.68;;
24273;SDS011;12392;42.678;23.380;2022-12-18T11:39:42;17.10;;;9.50;;
24273;SDS011;12392;42.678;23.380;2022-12-18T11:42:24;16.80;;;8.68;;
24273;SDS011;12392;42.678;23.380;2022-12-18T11:50:11;17.60;;;8.55;;
24273;SDS011;12392;42.678;23.380;2022-12-18T11:52:43;18.75;;;8.30;;
24273;SDS011;12392;42.678;23.380;2022-12-18T11:55:14;18.88;;;7.90;;
24273;SDS011;12392;42.678;23.380;2022-12-18T11:58:01;19.17;;;7.68;;
24273;SDS011;12392;42.678;23.380;2022-12-18T12:00:36;18.02;;;7.53;;
24273;SDS011;12392;42.678;23.380;2022-12-18T12:03:12;16.75;;;7.40;;
24273;SDS011;12392;42.678;23.380;2022-12-18T12:05:47;15.02;;;7.22;;
24273;SDS011;12392;42.678;23.380;2022-12-18T12:17:13;20.52;;;8.65;;
24273;SDS011;12392;42.678;23.380;2022-12-18T12:19:54;18.55;;;8.68;;
24273;SDS011;12392;42.678;23.380;2022-12-18T12:22:28;22.40;;;9.90;;
24273;SDS011;12392;42.678;23.380;2022-12-18T12:27:50;20.17;;;8.75;;
24273;SDS011;12392;42.678;23.380;2022-12-18T12:31:12;18.27;;;8.20;;
24273;SDS011;12392;42.678;23.380;2022-12-18T12:33:46;19.48;;;8.40;;
24273;SDS011;12392;42.678;23.380;2022-12-18T12:36:41;17.55;;;8.25;;
24273;SDS011;12392;42.678;23.380;2022-12-18T12:39:30;15.68;;;8.85;;
24273;SDS011;12392;42.678;23.380;2022-12-18T12:41:59;20.05;;;9.60;;
24273;SDS011;12392;42.678;23.380;2022-12-18T12:44:44;19.90;;;9.45;;
24273;SDS011;12392;42.678;23.380;2022-12-18T12:47:18;20.17;;;8.48;;
24273;SDS011;12392;42.678;23.380;2022-12-18T12:49:47;18.52;;;8.57;;
24273;SDS011;12392;42.678;23.380;2022-12-18T12:52:15;15.38;;;7.85;;
24273;SDS011;12392;42.678;23.380;2022-12-18T12:54:50;18.15;;;8.45;;
24273;SDS011;12392;42.678;23.380;2022-12-18T12:57:38;16.98;;;8.65;;
24273;SDS011;12392;42.678;23.380;2022-12-18T13:00:10;17.52;;;7.97;;
24273;SDS011;12392;42.678;23.380;2022-12-18T13:02:51;17.52;;;8.38;;
24273;SDS011;12392;42.678;23.380;2022-12-18T13:05:31;15.32;;;7.72;;
24273;SDS011;12392;42.678;23.380;2022-12-18T13:08:06;18.42;;;8.45;;
24273;SDS011;12392;42.678;23.380;2022-12-18T13:10:37;21.85;;;9.15;;
24273;SDS011;12392;42.678;23.380;2022-12-18T13:13:13;19.00;;;9.20;;
24273;SDS011;12392;42.678;23.380;2022-12-18T13:20:36;16.88;;;8.13;;
24273;SDS011;12392;42.678;23.380;2022-12-18T13:23:46;18.23;;;7.60;;
24273;SDS011;12392;42.678;23.380;2022-12-18T13:25:55;16.70;;;8.05;;
24273;SDS011;12392;42.678;23.380;2022-12-18T13:36:41;18.70;;;8.40;;
24273;SDS011;12392;42.678;23.380;2022-12-18T13:47:00;20.33;;;9.30;;
24273;SDS011;12392;42.678;23.380;2022-12-18T13:49:31;20.48;;;8.80;;
24273;SDS011;12392;42.678;23.380;2022-12-18T13:52:24;20.63;;;9.40;;
24273;SDS011;12392;42.678;23.380;2022-12-18T13:54:52;18.63;;;9.00;;
24273;SDS011;12392;42.678;23.380;2022-12-18T13:57:30;18.33;;;8.63;;
24273;SDS011;12392;42.678;23.380;2022-12-18T14:02:45;13.40;;;7.03;;
24273;SDS011;12392;42.678;23.380;2022-12-18T14:05:27;19.17;;;9.05;;
24273;SDS011;12392;42.678;23.380;2022-12-18T14:07:55;14.90;;;7.70;;
24273;SDS011;12392;42.678;23.380;2022-12-18T14:10:30;16.90;;;9.00;;
24273;SDS011;12392;42.678;23.380;2022-12-18T14:13:04;25.75;;;8.43;;
24273;SDS011;12392;42.678;23.380;2022-12-18T14:15:38;21.73;;;8.63;;
24273;SDS011;12392;42.678;23.380;2022-12-18T14:20:59;18.15;;;8.15;;
24273;SDS011;12392;42.678;23.380;2022-12-18T14:28:25;20.73;;;7.85;;
24273;SDS011;12392;42.678;23.380;2022-12-18T14:30:51;15.50;;;7.30;;
24273;SDS011;12392;42.678;23.380;2022-12-18T14:33:18;14.38;;;6.78;;
24273;SDS011;12392;42.678;23.380;2022-12-18T14:35:54;15.93;;;7.57;;
24273;SDS011;12392;42.678;23.380;2022-12-18T14:38:29;14.48;;;7.32;;
24273;SDS011;12392;42.678;23.380;2022-12-18T14:41:00;18.42;;;8.27;;
24273;SDS011;12392;42.678;23.380;2022-12-18T14:43:33;16.98;;;8.02;;
24273;SDS011;12392;42.678;23.380;2022-12-18T14:46:01;14.15;;;7.30;;
24273;SDS011;12392;42.678;23.380;2022-12-18T14:48:40;14.40;;;7.35;;
24273;SDS011;12392;42.678;23.380;2022-12-18T14:51:14;17.25;;;7.50;;
24273;SDS011;12392;42.678;23.380;2022-12-18T14:53:42;17.73;;;7.15;;
24273;SDS011;12392;42.678;23.380;2022-12-18T14:58:44;19.25;;;7.88;;
24273;SDS011;12392;42.678;23.380;2022-12-18T15:01:17;18.17;;;7.93;;
24273;SDS011;12392;42.678;23.380;2022-12-18T15:03:53;11.40;;;6.60;;
24273;SDS011;12392;42.678;23.380;2022-12-18T15:06:52;13.88;;;7.07;;
24273;SDS011;12392;42.678;23.380;2022-12-18T15:09:22;16.65;;;7.80;;
24273;SDS011;12392;42.678;23.380;2022-12-18T15:11:54;13.50;;;6.47;;
24273;SDS011;12392;42.678;23.380;2022-12-18T15:14:22;14.13;;;7.43;;
24273;SDS011;12392;42.678;23.380;2022-12-18T15:17:05;12.57;;;6.43;;
24273;SDS011;12392;42.678;23.380;2022-12-18T15:19:39;13.43;;;6.50;;
24273;SDS011;12392;42.678;23.380;2022-12-18T15:22:23;14.80;;;6.88;;
24273;SDS011;12392;42.678;23.380;2022-12-18T15:24:57;10.40;;;6.05;;
24273;SDS011;12392;42.678;23.380;2022-12-18T15:32:33;10.93;;;6.55;;
24273;SDS011;12392;42.678;23.380;2022-12-18T15:37:34;14.00;;;6.93;;
24273;SDS011;12392;42.678;23.380;2022-12-18T15:40:00;14.50;;;6.80;;
24273;SDS011;12392;42.678;23.380;2022-12-18T15:42:27;16.27;;;7.93;;
24273;SDS011;12392;42.678;23.380;2022-12-18T15:45:12;18.58;;;7.68;;
24273;SDS011;12392;42.678;23.380;2022-12-18T15:47:38;16.38;;;6.28;;
24273;SDS011;12392;42.678;23.380;2022-12-18T15:50:04;15.35;;;7.45;;
24273;SDS011;12392;42.678;23.380;2022-12-18T15:52:32;16.17;;;7.00;;
24273;SDS011;12392;42.678;23.380;2022-12-18T15:55:08;14.95;;;7.57;;
24273;SDS011;12392;42.678;23.380;2022-12-18T15:57:55;17.55;;;7.18;;
24273;SDS011;12392;42.678;23.380;2022-12-18T16:00:21;16.60;;;6.95;;
24273;SDS011;12392;42.678;23.380;2022-12-18T16:02:47;20.15;;;6.63;;
24273;SDS011;12392;42.678;23.380;2022-12-18T16:05:16;15.55;;;7.07;;
24273;SDS011;12392;42.678;23.380;2022-12-18T16:07:43;17.90;;;8.57;;
24273;SDS011;12392;42.678;23.380;2022-12-18T16:10:09;17.10;;;7.53;;
24273;SDS011;12392;42.678;23.380;2022-12-18T16:12:35;17.63;;;8.10;;
24273;SDS011;12392;42.678;23.380;2022-12-18T16:15:01;16.35;;;7.43;;
24273;SDS011;12392;42.678;23.380;2022-12-18T16:17:27;13.82;;;6.70;;
24273;SDS011;12392;42.678;23.380;2022-12-18T16:19:53;17.60;;;7.47;;
24273;SDS011;12392;42.678;23.380;2022-12-18T16:22:23;14.25;;;6.80;;
24273;SDS011;12392;42.678;23.380;2022-12-18T16:24:51;17.42;;;8.73;;
24273;SDS011;12392;42.678;23.380;2022-12-18T16:27:17;17.80;;;7.68;;
24273;SDS011;12392;42.678;23.380;2022-12-18T16:29:43;17.13;;;8.13;;
24273;SDS011;12392;42.678;23.380;2022-12-18T16:32:13;13.40;;;7.03;;
24273;SDS011;12392;42.678;23.380;2022-12-18T16:34:40;15.45;;;7.57;;
24273;SDS011;12392;42.678;23.380;2022-12-18T16:37:07;20.40;;;8.27;;
24273;SDS011;12392;42.678;23.380;2022-12-18T16:39:33;18.05;;;7.95;;